Time;durP1;ratioP1;P1;durP2;ratioP2;P2;SDS_P1;SDS_P2;PMS_P1;PMS_P2;Temp;Humidity;BMP_temperature;BMP_pressure;BME280_temperature;BME280_humidity;BME280_pressure;Samples;Min_cycle;Max_cycle;Signal;HPM_P1;HPM_P2
2023/10/29 00:02:31;;;;;;;42.40;23.50;;;;;;;10.04;94.07;99225.84;130564;1260;106703;-78
2023/10/29 00:05:37;;;;;;;40.70;23.00;;;;;;;10.01;94.31;99233.67;130493;1260;108679;-78
2023/10/29 00:08:42;;;;;;;43.20;23.60;;;;;;;9.97;94.06;99232.61;130609;1260;106810;-79
2023/10/29 00:11:48;;;;;;;40.50;22.20;;;;;;;9.92;93.72;99233.73;130641;1254;106880;-78
2023/10/29 00:14:53;;;;;;;39.30;24.20;;;;;;;9.84;93.44;99236.64;130668;1259;108703;-79
2023/10/29 00:18:00;;;;;;;38.80;21.80;;;;;;;9.74;93.53;99238.45;130597;1270;108448;-79
2023/10/29 00:21:06;;;;;;;34.90;19.20;;;;;;;9.65;93.39;99233.30;130617;1259;107709;-81
2023/10/29 00:24:12;;;;;;;28.20;17.00;;;;;;;9.57;93.47;99234.17;130697;1254;106645;-81
2023/10/29 00:27:18;;;;;;;28.40;18.20;;;;;;;9.51;93.69;99236.06;130756;1261;108545;-78
2023/10/29 00:30:23;;;;;;;29.50;18.60;;;;;;;9.46;93.24;99234.31;130507;1260;107775;-79
2023/10/29 00:33:29;;;;;;;29.80;19.10;;;;;;;9.40;93.26;99231.95;130451;1261;107737;-79
2023/10/29 00:36:35;;;;;;;29.40;18.80;;;;;;;9.33;93.35;99234.11;130523;1261;108469;-79
2023/10/29 00:39:41;;;;;;;31.70;18.40;;;;;;;9.26;93.23;99233.11;130573;1260;107468;-80
2023/10/29 00:42:47;;;;;;;26.10;15.90;;;;;;;9.20;93.47;99231.30;130571;1260;106251;-79
2023/10/29 00:45:54;;;;;;;26.10;14.70;;;;;;;9.18;93.50;99232.08;130505;1260;105969;-79
2023/10/29 00:49:02;;;;;;;30.70;18.70;;;;;;;9.19;93.61;99231.48;130608;1260;108544;-79
2023/10/29 00:52:08;;;;;;;26.80;17.30;;;;;;;9.22;93.53;99238.93;130588;1255;106742;-79
2023/10/29 00:55:15;;;;;;;24.80;16.60;;;;;;;9.24;93.63;99239.89;130446;1270;108596;-79
2023/10/29 00:58:25;;;;;;;29.50;17.90;;;;;;;9.28;93.38;99244.81;130553;1268;108548;-79
2023/10/29 01:01:31;;;;;;;30.40;19.30;;;;;;;9.30;93.46;99249.57;130520;1261;106642;-79
2023/10/29 01:04:37;;;;;;;30.50;17.80;;;;;;;9.31;93.68;99250.36;130611;1260;107623;-79
2023/10/29 01:07:43;;;;;;;26.60;15.60;;;;;;;9.32;93.41;99245.59;130547;1270;106744;-79
2023/10/29 01:10:48;;;;;;;28.90;16.80;;;;;;;9.35;93.38;99244.04;130477;1267;108537;-79
2023/10/29 01:13:55;;;;;;;26.80;16.10;;;;;;;9.36;93.66;99243.97;130503;1260;108633;-79
2023/10/29 01:17:01;;;;;;;28.30;17.50;;;;;;;9.35;93.56;99233.91;130508;1254;107891;-78
2023/10/29 01:20:08;;;;;;;26.30;17.00;;;;;;;9.32;93.23;99234.25;130625;1254;107841;-79
2023/10/29 01:23:14;;;;;;;27.40;17.00;;;;;;;9.26;93.24;99244.68;130563;1267;108387;-79
2023/10/29 01:26:21;;;;;;;25.40;15.80;;;;;;;9.16;93.32;99253.34;130544;1261;106603;-79
2023/10/29 01:29:26;;;;;;;21.40;13.60;;;;;;;9.09;92.98;99251.45;130601;1263;107652;-78
2023/10/29 01:32:32;;;;;;;35.80;18.70;;;;;;;9.06;93.02;99252.95;130621;1259;107635;-79
2023/10/29 01:35:40;;;;;;;30.40;18.00;;;;;;;9.01;92.89;99251.47;130547;1257;108648;-79
2023/10/29 01:38:46;;;;;;;33.80;18.00;;;;;;;8.97;92.69;99258.95;130615;1259;107604;-78
2023/10/29 01:41:55;;;;;;;29.50;17.90;;;;;;;8.96;92.71;99258.75;130606;1257;107109;-79
2023/10/29 01:45:03;;;;;;;28.50;17.20;;;;;;;8.99;92.95;99261.31;130554;1259;107943;-79
2023/10/29 01:48:09;;;;;;;26.90;15.80;;;;;;;9.00;93.19;99273.52;130523;1260;106658;-79
2023/10/29 01:51:15;;;;;;;24.20;14.70;;;;;;;9.02;92.82;99266.99;130631;1269;106277;-81
2023/10/29 01:54:22;;;;;;;24.70;16.20;;;;;;;9.05;93.09;99265.77;130664;1260;108222;-80
2023/10/29 01:57:27;;;;;;;27.40;16.10;;;;;;;9.10;93.12;99262.57;130659;1254;107707;-79
2023/10/29 02:00:33;;;;;;;19.60;14.00;;;;;;;9.15;92.95;99260.23;130569;1261;106964;-78
2023/10/29 02:03:38;;;;;;;19.90;13.60;;;;;;;9.18;92.90;99262.23;130636;1269;107705;-79
2023/10/29 02:06:44;;;;;;;24.00;14.00;;;;;;;9.19;93.20;99261.80;130600;1261;108703;-79
2023/10/29 02:09:51;;;;;;;15.10;11.10;;;;;;;9.19;93.45;99259.59;130533;1259;106390;-79
2023/10/29 02:12:57;;;;;;;17.90;10.20;;;;;;;9.21;93.51;99260.53;130566;1259;107840;-79
2023/10/29 02:16:03;;;;;;;18.10;11.10;;;;;;;9.24;93.61;99264.91;130559;1254;109099;-79
2023/10/29 02:19:09;;;;;;;16.80;10.90;;;;;;;9.28;93.91;99274.59;130533;1254;106933;-79
2023/10/29 02:22:14;;;;;;;14.30;10.00;;;;;;;9.34;94.30;99270.39;130477;1256;107686;-79
2023/10/29 02:25:20;;;;;;;14.80;9.60;;;;;;;9.39;94.37;99269.85;130522;1270;107408;-79
2023/10/29 02:28:26;;;;;;;14.50;9.80;;;;;;;9.41;94.50;99271.70;130580;1256;108382;-79
2023/10/29 02:31:31;;;;;;;12.10;8.50;;;;;;;9.44;94.75;99272.46;130540;1268;106448;-79
2023/10/29 02:34:37;;;;;;;16.10;9.80;;;;;;;9.48;94.66;99271.72;130545;1260;106950;-79
2023/10/29 02:37:43;;;;;;;14.00;9.20;;;;;;;9.53;94.84;99267.58;130511;1261;106272;-79
2023/10/29 02:40:48;;;;;;;15.80;9.90;;;;;;;9.58;94.65;99266.66;130483;1254;106648;-82
2023/10/29 02:43:55;;;;;;;16.50;9.90;;;;;;;9.62;94.61;99268.55;130569;1256;107716;-80
2023/10/29 02:47:00;;;;;;;12.50;8.80;;;;;;;9.64;94.48;99267.45;130586;1261;106361;-81
2023/10/29 02:50:07;;;;;;;12.60;7.90;;;;;;;9.64;94.64;99271.67;130652;1254;108704;-79
2023/10/29 02:53:15;;;;;;;13.00;9.00;;;;;;;9.67;94.75;99269.44;130561;1259;108347;-79
2023/10/29 02:56:21;;;;;;;11.40;8.70;;;;;;;9.72;94.78;99268.39;130556;1264;108676;-79
2023/10/29 02:59:26;;;;;;;12.90;9.10;;;;;;;9.74;94.57;99270.20;130480;1254;107681;-79
2023/10/29 03:02:32;;;;;;;13.40;9.10;;;;;;;9.76;94.81;99275.30;130407;1260;106719;-79
2023/10/29 03:05:37;;;;;;;13.80;8.90;;;;;;;9.77;94.83;99278.80;130508;1269;106782;-79
2023/10/29 03:08:43;;;;;;;13.00;8.10;;;;;;;9.77;94.98;99286.10;130520;1260;107056;-79
2023/10/29 03:11:49;;;;;;;11.20;8.50;;;;;;;9.78;95.17;99284.88;130649;1270;107425;-79
2023/10/29 03:14:54;;;;;;;10.70;7.80;;;;;;;9.82;95.20;99276.29;130621;1256;107065;-79
2023/10/29 03:18:00;;;;;;;12.90;8.50;;;;;;;9.85;95.02;99276.34;130527;1254;107767;-79
2023/10/29 03:21:05;;;;;;;12.60;8.70;;;;;;;9.87;95.03;99277.77;130466;1260;106294;-79
2023/10/29 03:24:11;;;;;;;11.70;7.70;;;;;;;9.86;95.07;99276.38;130494;1255;107274;-79
2023/10/29 03:27:17;;;;;;;9.10;6.90;;;;;;;9.87;95.18;99277.16;130576;1260;108567;-79
2023/10/29 03:30:22;;;;;;;12.40;7.70;;;;;;;9.88;95.07;99277.03;130517;1257;108855;-80
2023/10/29 03:33:28;;;;;;;10.60;8.20;;;;;;;9.90;95.28;99274.53;130573;1261;106987;-80
2023/10/29 03:36:33;;;;;;;10.40;7.90;;;;;;;9.91;95.02;99269.61;130532;1260;107740;-80
2023/10/29 03:39:39;;;;;;;15.30;8.50;;;;;;;9.93;95.07;99272.23;130600;1259;107072;-79
2023/10/29 03:42:47;;;;;;;13.50;8.30;;;;;;;9.93;95.11;99266.91;130534;1261;108769;-80
2023/10/29 03:45:54;;;;;;;10.80;7.20;;;;;;;9.92;95.15;99263.62;130799;1257;107521;-81
2023/10/29 03:48:59;;;;;;;11.60;7.70;;;;;;;9.93;95.53;99264.41;130645;1261;107980;-81
2023/10/29 03:52:07;;;;;;;11.60;7.60;;;;;;;9.94;95.15;99258.27;130749;1258;107787;-80
2023/10/29 03:55:12;;;;;;;10.40;7.60;;;;;;;9.96;95.77;99257.13;130659;1261;106656;-80
2023/10/29 03:58:19;;;;;;;9.50;7.30;;;;;;;9.96;95.26;99259.41;130773;1260;107293;-81
2023/10/29 04:01:25;;;;;;;11.60;7.60;;;;;;;9.95;95.76;99260.23;130668;1260;108013;-81
2023/10/29 04:04:32;;;;;;;9.70;6.30;;;;;;;9.94;95.70;99254.18;130759;1256;107637;-80
2023/10/29 04:07:38;;;;;;;9.40;7.20;;;;;;;9.93;95.51;99251.23;130711;1254;107712;-81
2023/10/29 04:10:47;;;;;;;9.60;6.80;;;;;;;9.94;95.58;99250.45;130693;1254;108695;-80
2023/10/29 04:13:52;;;;;;;10.80;7.60;;;;;;;9.93;95.42;99258.89;130735;1259;108426;-80
2023/10/29 04:16:58;;;;;;;12.40;8.00;;;;;;;9.90;95.17;99268.70;130690;1254;107560;-80
2023/10/29 04:20:05;;;;;;;10.00;7.00;;;;;;;9.83;95.49;99265.48;130660;1260;107513;-81
2023/10/29 04:23:11;;;;;;;10.80;6.50;;;;;;;9.78;95.45;99263.02;130701;1258;107966;-79
2023/10/29 04:26:19;;;;;;;10.70;7.40;;;;;;;9.76;95.50;99258.09;130554;1256;107669;-79
2023/10/29 04:29:25;;;;;;;9.30;7.00;;;;;;;9.74;95.37;99265.39;130623;1256;108739;-79
2023/10/29 04:32:32;;;;;;;9.60;7.40;;;;;;;9.72;95.26;99273.31;130776;1259;106500;-79
2023/10/29 04:35:37;;;;;;;10.80;7.20;;;;;;;9.70;95.61;99276.60;130854;1259;107811;-80
2023/10/29 04:38:43;;;;;;;9.20;7.10;;;;;;;9.65;95.67;99281.41;130765;1261;106799;-80
2023/10/29 04:41:49;;;;;;;12.70;6.70;;;;;;;9.61;95.99;99279.13;130744;1256;108547;-80
2023/10/29 04:44:54;;;;;;;10.60;7.20;;;;;;;9.62;95.98;99278.14;130864;1259;107425;-79
2023/10/29 04:48:00;;;;;;;12.70;7.10;;;;;;;9.63;95.93;99271.61;130725;1256;107038;-80
2023/10/29 04:51:07;;;;;;;11.90;7.60;;;;;;;9.65;95.96;99279.63;130731;1256;108518;-80
2023/10/29 04:54:13;;;;;;;13.00;6.90;;;;;;;9.66;96.24;99284.70;130737;1258;109878;-79
2023/10/29 04:57:20;;;;;;;10.50;6.80;;;;;;;9.67;96.17;99288.09;130600;1259;106610;-79
2023/10/29 05:00:26;;;;;;;11.00;7.30;;;;;;;9.70;96.47;99289.22;130511;1260;108686;-79
2023/10/29 05:03:32;;;;;;;12.60;7.50;;;;;;;9.73;96.23;99285.84;130580;1259;106864;-82
2023/10/29 05:06:37;;;;;;;11.10;7.50;;;;;;;9.76;96.35;99284.72;130688;1257;106724;-79
2023/10/29 05:09:43;;;;;;;11.00;8.20;;;;;;;9.77;96.02;99285.65;130583;1259;108587;-79
2023/10/29 05:12:49;;;;;;;15.30;9.00;;;;;;;9.79;96.33;99284.98;130538;1259;106711;-79
2023/10/29 05:15:54;;;;;;;11.50;7.20;;;;;;;9.80;96.37;99282.55;130601;1261;106554;-79
2023/10/29 05:19:02;;;;;;;24.50;13.40;;;;;;;9.82;96.33;99288.75;130564;1256;106418;-79
2023/10/29 05:22:08;;;;;;;94.70;35.10;;;;;;;9.83;96.29;99297.80;130666;1254;108399;-79
2023/10/29 05:25:13;;;;;;;137.10;47.70;;;;;;;9.88;96.28;99306.00;130514;1260;107955;-79
2023/10/29 05:28:19;;;;;;;84.90;34.70;;;;;;;9.90;96.48;99310.27;130889;1255;107461;-79
2023/10/29 05:31:25;;;;;;;132.00;43.50;;;;;;;9.88;95.90;99305.64;130511;1256;108725;-79
2023/10/29 05:34:31;;;;;;;25.40;12.30;;;;;;;9.88;96.64;99303.53;130557;1256;107807;-79
2023/10/29 05:37:36;;;;;;;20.50;10.80;;;;;;;9.90;96.22;99306.88;130489;1259;107599;-79
2023/10/29 05:40:42;;;;;;;12.20;7.50;;;;;;;9.94;96.51;99312.23;131011;1256;108600;-81
2023/10/29 05:43:48;;;;;;;17.70;9.20;;;;;;;9.99;96.57;99309.36;131321;1259;107810;-79
2023/10/29 05:46:53;;;;;;;13.00;8.20;;;;;;;10.03;96.29;99308.20;130613;1256;108428;-79
2023/10/29 05:49:59;;;;;;;13.50;8.00;;;;;;;10.06;96.30;99314.13;130610;1257;107801;-79
2023/10/29 05:53:05;;;;;;;10.60;7.20;;;;;;;10.04;96.19;99311.63;130744;1256;108418;-80
2023/10/29 05:56:11;;;;;;;8.40;5.90;;;;;;;10.01;96.32;99311.61;130627;1260;106971;-80
2023/10/29 05:59:17;;;;;;;11.20;7.30;;;;;;;10.00;96.18;99326.11;130876;1254;107570;-79
2023/10/29 06:02:22;;;;;;;9.80;7.20;;;;;;;9.99;96.16;99331.95;130600;1256;107350;-79
2023/10/29 06:05:28;;;;;;;10.80;7.00;;;;;;;10.00;95.96;99330.70;130522;1255;107551;-79
2023/10/29 06:08:34;;;;;;;10.50;7.00;;;;;;;10.01;96.15;99333.08;130588;1261;107105;-80
2023/10/29 06:11:42;;;;;;;9.50;6.70;;;;;;;10.02;96.33;99330.17;131149;1261;107795;-81
2023/10/29 06:14:48;;;;;;;18.00;10.20;;;;;;;10.02;96.13;99340.13;130573;1260;108419;-80
2023/10/29 06:17:55;;;;;;;12.70;7.70;;;;;;;10.03;96.32;99341.29;130858;1259;106515;-81
2023/10/29 06:21:01;;;;;;;12.90;8.90;;;;;;;10.05;96.14;99342.48;131026;1254;107794;-80
2023/10/29 06:24:07;;;;;;;10.60;7.40;;;;;;;10.07;96.13;99347.38;130637;1254;107909;-80
2023/10/29 06:27:13;;;;;;;9.90;7.20;;;;;;;10.08;96.13;99350.30;131100;1254;106969;-79
2023/10/29 06:30:19;;;;;;;11.20;7.10;;;;;;;10.08;96.20;99346.73;130686;1259;107807;-79
2023/10/29 06:33:24;;;;;;;10.70;6.30;;;;;;;10.08;95.89;99344.79;130795;1259;108223;-79
2023/10/29 06:36:30;;;;;;;10.70;7.00;;;;;;;10.10;96.19;99344.23;130723;1257;107057;-79
2023/10/29 06:39:36;;;;;;;10.30;6.90;;;;;;;10.13;96.33;99351.48;130720;1259;107687;-79
2023/10/29 06:42:42;;;;;;;10.90;6.80;;;;;;;10.15;96.51;99356.95;130701;1254;106854;-79
2023/10/29 06:45:48;;;;;;;11.10;7.20;;;;;;;10.17;96.51;99363.99;130736;1255;105661;-79
2023/10/29 06:48:54;;;;;;;11.50;6.60;;;;;;;10.21;96.34;99364.25;130554;1259;106809;-79
2023/10/29 06:52:00;;;;;;;10.30;6.60;;;;;;;10.28;96.51;99359.63;130758;1255;108662;-79
2023/10/29 06:55:08;;;;;;;11.30;6.80;;;;;;;10.36;96.63;99355.89;130736;1259;108611;-79
2023/10/29 06:58:14;;;;;;;10.80;6.80;;;;;;;10.44;96.72;99346.65;130750;1260;107562;-78
2023/10/29 07:01:20;;;;;;;11.60;7.60;;;;;;;10.52;96.70;99344.77;130746;1254;106980;-80
2023/10/29 07:04:25;;;;;;;12.60;6.70;;;;;;;10.62;96.57;99339.02;130676;1254;107092;-78
2023/10/29 07:07:31;;;;;;;9.20;6.80;;;;;;;10.71;96.48;99337.86;130693;1261;107191;-79
2023/10/29 07:10:37;;;;;;;9.80;5.90;;;;;;;10.78;96.51;99332.81;130564;1259;108500;-78
2023/10/29 07:13:45;;;;;;;8.90;6.00;;;;;;;10.84;96.70;99330.10;130661;1256;108606;-79
2023/10/29 07:16:55;;;;;;;10.50;6.20;;;;;;;10.93;96.94;99328.23;130507;1259;108009;-79
2023/10/29 07:20:00;;;;;;;9.90;6.70;;;;;;;11.01;96.72;99330.08;130490;1259;108123;-79
2023/10/29 07:23:06;;;;;;;9.20;6.70;;;;;;;11.08;96.70;99332.92;130670;1254;107619;-79
2023/10/29 07:26:13;;;;;;;10.70;6.60;;;;;;;11.13;96.51;99327.55;130563;1270;106920;-78
2023/10/29 07:29:19;;;;;;;9.80;6.10;;;;;;;11.18;96.75;99321.56;130532;1259;108733;-79
2023/10/29 07:32:24;;;;;;;8.20;6.10;;;;;;;11.23;96.61;99322.42;130521;1263;108391;-78
2023/10/29 07:35:30;;;;;;;12.50;6.80;;;;;;;11.28;96.69;99321.77;130575;1259;107600;-77
2023/10/29 07:38:35;;;;;;;9.20;6.40;;;;;;;11.36;96.61;99320.97;130495;1259;107303;-78
2023/10/29 07:41:41;;;;;;;12.10;7.00;;;;;;;11.45;96.57;99318.24;130565;1260;107289;-79
2023/10/29 07:44:47;;;;;;;9.80;6.50;;;;;;;11.50;96.66;99318.34;130490;1256;108537;-81
2023/10/29 07:47:52;;;;;;;10.40;6.60;;;;;;;11.53;96.59;99312.30;130934;1254;108718;-80
2023/10/29 07:50:59;;;;;;;9.30;6.30;;;;;;;11.59;96.79;99303.05;130850;1256;108485;-78
2023/10/29 07:54:09;;;;;;;11.10;6.40;;;;;;;11.67;96.86;99298.65;130513;1257;107834;-78
2023/10/29 07:57:14;;;;;;;9.90;6.30;;;;;;;11.77;96.73;99292.50;130506;1257;107804;-79
2023/10/29 08:00:20;;;;;;;10.70;6.30;;;;;;;11.85;96.76;99282.29;130614;1254;108388;-78
2023/10/29 08:03:26;;;;;;;9.50;5.90;;;;;;;11.96;96.77;99288.27;130664;1259;107704;-78
2023/10/29 08:06:32;;;;;;;10.30;5.80;;;;;;;12.07;96.81;99297.25;130712;1259;107949;-78
2023/10/29 08:09:38;;;;;;;9.80;6.40;;;;;;;12.15;96.78;99313.47;130640;1254;106756;-79
2023/10/29 08:12:43;;;;;;;10.30;6.70;;;;;;;12.23;96.75;99315.00;130639;1254;106635;-78
2023/10/29 08:15:49;;;;;;;9.60;6.40;;;;;;;12.29;96.63;99310.71;130668;1255;107994;-78
2023/10/29 08:18:54;;;;;;;9.50;5.50;;;;;;;12.31;96.59;99311.83;130486;1259;108346;-78
2023/10/29 08:22:00;;;;;;;8.90;5.40;;;;;;;12.38;96.58;99311.36;130500;1261;106605;-79
2023/10/29 08:25:08;;;;;;;9.10;5.60;;;;;;;12.47;96.69;99305.92;130560;1258;106243;-79
2023/10/29 08:28:14;;;;;;;9.90;5.70;;;;;;;12.60;96.77;99301.92;130594;1256;107892;-78
2023/10/29 08:31:19;;;;;;;10.90;5.90;;;;;;;12.73;96.70;99300.34;130565;1256;108502;-79
2023/10/29 08:34:25;;;;;;;11.60;5.90;;;;;;;12.84;96.61;99301.48;130493;1259;107825;-79
2023/10/29 08:37:33;;;;;;;9.10;5.80;;;;;;;12.91;96.27;99299.52;130571;1259;106856;-77
2023/10/29 08:40:39;;;;;;;8.60;5.40;;;;;;;12.95;96.10;99305.52;130672;1254;108444;-78
2023/10/29 08:43:45;;;;;;;9.70;5.60;;;;;;;13.04;96.26;99309.45;130543;1262;108283;-77
2023/10/29 08:46:51;;;;;;;11.20;5.80;;;;;;;13.13;96.09;99311.83;130641;1258;107729;-77
2023/10/29 08:49:56;;;;;;;12.50;5.70;;;;;;;13.21;96.03;99321.34;130585;1256;106606;-78
2023/10/29 08:53:02;;;;;;;12.70;9.20;;;;;;;13.26;95.82;99326.33;130616;1254;109983;-78
2023/10/29 08:56:08;;;;;;;9.50;6.10;;;;;;;13.32;95.77;99330.21;130521;1257;106921;-77
2023/10/29 08:59:14;;;;;;;12.90;5.90;;;;;;;13.36;95.63;99321.57;130541;1259;106995;-77
2023/10/29 09:02:19;;;;;;;9.00;6.00;;;;;;;13.39;95.51;99321.18;130571;1256;106923;-78
2023/10/29 09:05:25;;;;;;;8.70;6.10;;;;;;;13.44;95.36;99317.81;130544;1254;108701;-77
2023/10/29 09:08:30;;;;;;;10.90;6.30;;;;;;;13.52;95.34;99310.98;130565;1259;107773;-77
2023/10/29 09:11:36;;;;;;;8.00;6.00;;;;;;;13.58;95.22;99314.02;130518;1256;107852;-77
2023/10/29 09:14:42;;;;;;;8.60;5.70;;;;;;;13.61;95.33;99309.07;130554;1259;108638;-77
2023/10/29 09:17:47;;;;;;;8.60;5.40;;;;;;;13.65;94.79;99311.56;130518;1259;109204;-77
2023/10/29 09:20:53;;;;;;;7.70;5.50;;;;;;;13.67;94.84;99313.55;130508;1258;109322;-77
2023/10/29 09:24:00;;;;;;;8.10;5.60;;;;;;;13.67;94.50;99317.43;130537;1259;106546;-77
2023/10/29 09:27:06;;;;;;;9.70;5.60;;;;;;;13.70;94.78;99317.95;130505;1255;108460;-78
2023/10/29 09:30:13;;;;;;;7.90;5.30;;;;;;;13.74;94.36;99314.38;130553;1256;107429;-78
2023/10/29 09:33:18;;;;;;;8.60;4.80;;;;;;;13.73;94.35;99310.37;130577;1259;107522;-78
2023/10/29 09:36:24;;;;;;;9.70;4.70;;;;;;;13.73;94.48;99309.46;131000;1256;106539;-78
2023/10/29 09:39:31;;;;;;;8.60;5.20;;;;;;;13.74;94.33;99304.39;130528;1261;107437;-78
2023/10/29 09:42:41;;;;;;;8.30;4.80;;;;;;;13.75;94.29;99303.17;130561;1260;107884;-80
2023/10/29 09:45:48;;;;;;;6.90;4.80;;;;;;;13.78;94.04;99306.61;130618;1259;106354;-80
2023/10/29 09:48:55;;;;;;;7.10;4.60;;;;;;;13.75;94.02;99303.22;130613;1257;106962;-79
2023/10/29 09:52:01;;;;;;;6.70;4.50;;;;;;;13.74;93.95;99299.16;130773;1259;106720;-79
2023/10/29 09:55:10;;;;;;;6.00;4.50;;;;;;;13.73;93.85;99297.88;130573;1255;106508;-78
2023/10/29 09:58:16;;;;;;;7.70;4.40;;;;;;;13.77;93.60;99290.11;130587;1259;106371;-78
2023/10/29 10:01:21;;;;;;;6.50;4.60;;;;;;;13.81;93.38;99282.09;130509;1256;107796;-78
2023/10/29 10:04:27;;;;;;;7.70;4.40;;;;;;;13.84;93.61;99279.84;130606;1259;108157;-78
2023/10/29 10:07:33;;;;;;;6.40;4.10;;;;;;;13.88;93.59;99278.98;130794;1261;108787;-77
2023/10/29 10:10:42;;;;;;;5.70;4.00;;;;;;;13.91;93.49;99268.56;130797;1259;107860;-77
2023/10/29 10:13:48;;;;;;;6.20;3.70;;;;;;;13.91;93.07;99269.80;130708;1257;106670;-78
2023/10/29 10:17:10;;;;;;;6.00;3.90;;;;;;;13.93;92.87;99271.55;130748;1260;106976;-78
2023/10/29 10:20:20;;;;;;;5.90;3.90;;;;;;;14.00;92.89;99265.47;130722;1259;108583;-77
2023/10/29 10:23:26;;;;;;;6.50;3.80;;;;;;;14.07;92.66;99263.52;130479;1259;106579;-78
2023/10/29 10:26:35;;;;;;;6.10;3.70;;;;;;;14.08;92.65;99266.11;130529;1259;107743;-79
2023/10/29 10:29:41;;;;;;;5.50;3.40;;;;;;;14.08;92.81;99267.48;130540;1254;107614;-77
2023/10/29 10:32:49;;;;;;;5.90;3.70;;;;;;;14.07;92.52;99262.66;130529;1259;107595;-79
2023/10/29 10:35:55;;;;;;;4.90;3.10;;;;;;;14.05;92.56;99257.45;130572;1257;107709;-78
2023/10/29 10:39:01;;;;;;;4.50;2.90;;;;;;;14.10;92.93;99248.83;130845;1259;107339;-80
2023/10/29 10:42:07;;;;;;;5.40;3.50;;;;;;;14.15;92.26;99245.52;130615;1259;106634;-78
2023/10/29 10:45:15;;;;;;;6.80;3.30;;;;;;;14.18;92.14;99251.79;130444;1259;168052;-79
2023/10/29 10:48:21;;;;;;;4.30;3.30;;;;;;;14.21;92.33;99252.42;130671;1256;108694;-79
2023/10/29 10:51:28;;;;;;;7.50;3.30;;;;;;;14.24;92.08;99252.32;131093;1255;107724;-79
2023/10/29 10:54:34;;;;;;;4.50;3.10;;;;;;;14.26;92.17;99250.70;130553;1267;107808;-78
2023/10/29 10:57:40;;;;;;;3.90;2.60;;;;;;;14.27;91.75;99251.45;130683;1258;107255;-81
2023/10/29 11:00:50;;;;;;;8.10;3.10;;;;;;;14.31;91.44;99249.41;130795;1259;108702;-79
2023/10/29 11:03:57;;;;;;;4.40;3.10;;;;;;;14.40;91.34;99240.91;130571;1255;107926;-79
2023/10/29 11:07:03;;;;;;;5.80;2.90;;;;;;;14.49;90.74;99235.52;130566;1259;107228;-79
2023/10/29 11:10:10;;;;;;;4.20;3.20;;;;;;;14.59;90.64;99228.67;130604;1256;106610;-81
2023/10/29 11:13:22;;;;;;;5.50;2.90;;;;;;;14.70;90.74;99225.22;130564;1257;108133;-79
2023/10/29 11:16:28;;;;;;;4.70;2.60;;;;;;;14.78;90.48;99223.99;130505;1257;107829;-79
2023/10/29 11:19:43;;;;;;;5.50;2.50;;;;;;;14.82;90.58;99218.42;130706;1256;108543;-79
2023/10/29 11:22:52;;;;;;;5.60;2.60;;;;;;;14.87;90.67;99215.02;130639;1259;109398;-80
2023/10/29 11:26:21;;;;;;;6.00;3.10;;;;;;;14.92;90.06;99209.38;130842;1254;107781;-80
2023/10/29 11:29:45;;;;;;;4.80;2.70;;;;;;;14.97;90.15;99206.71;130611;1259;107717;-78
2023/10/29 11:33:18;;;;;;;5.70;2.80;;;;;;;15.00;90.00;99203.09;130506;1259;107732;-79
2023/10/29 11:36:38;;;;;;;6.00;3.10;;;;;;;15.01;90.22;99199.34;130551;1257;107667;-78
2023/10/29 11:39:45;;;;;;;4.60;2.80;;;;;;;15.01;89.56;99196.30;130603;1259;107883;-79
2023/10/29 11:42:51;;;;;;;4.60;3.10;;;;;;;14.99;89.72;99201.10;130551;1259;107007;-79
2023/10/29 11:46:01;;;;;;;5.90;2.60;;;;;;;14.99;89.55;99201.46;130475;1268;107780;-79
2023/10/29 11:49:07;;;;;;;3.90;2.70;;;;;;;15.01;89.36;99197.63;130562;1256;107568;-79
2023/10/29 11:52:13;;;;;;;3.70;2.20;;;;;;;15.05;89.58;99189.94;130613;1259;106605;-79
2023/10/29 11:55:23;;;;;;;4.30;2.50;;;;;;;15.11;89.09;99182.58;130685;1259;107847;-79
2023/10/29 11:58:28;;;;;;;3.70;2.40;;;;;;;15.15;88.19;99181.79;130590;1259;107726;-79
2023/10/29 12:01:35;;;;;;;3.20;2.30;;;;;;;15.17;89.04;99187.64;130612;1258;107091;-79
2023/10/29 12:04:41;;;;;;;4.60;2.50;;;;;;;15.19;88.27;99183.80;130559;1257;107132;-79
2023/10/29 12:07:47;;;;;;;4.00;2.50;;;;;;;15.18;88.58;99175.36;130589;1259;108679;-79
2023/10/29 12:10:54;;;;;;;6.30;2.30;;;;;;;15.19;88.80;99169.83;130527;1259;107776;-79
2023/10/29 12:13:59;;;;;;;4.20;2.70;;;;;;;15.22;88.14;99168.67;130588;1259;108639;-79
2023/10/29 12:17:06;;;;;;;4.20;2.30;;;;;;;15.28;88.17;99157.81;130542;1259;107644;-80
2023/10/29 12:20:21;;;;;;;4.50;2.40;;;;;;;15.35;87.73;99153.00;130586;1259;106992;-79
2023/10/29 12:23:27;;;;;;;6.00;2.30;;;;;;;15.39;87.93;99151.92;131313;1255;106787;-79
2023/10/29 12:26:33;;;;;;;3.00;2.30;;;;;;;15.38;87.61;99151.13;130978;1255;107506;-78
2023/10/29 12:29:39;;;;;;;3.80;2.30;;;;;;;15.38;87.40;99155.48;130733;1256;106989;-78
2023/10/29 12:32:44;;;;;;;3.80;2.30;;;;;;;15.37;87.11;99154.87;130572;1259;109056;-77
2023/10/29 12:35:52;;;;;;;3.20;2.00;;;;;;;15.37;87.61;99152.05;130690;1254;108653;-79
2023/10/29 12:38:58;;;;;;;4.90;2.10;;;;;;;15.41;87.47;99148.27;130690;1259;107739;-76
2023/10/29 12:42:03;;;;;;;4.30;2.20;;;;;;;15.47;87.25;99153.48;130619;1256;106666;-76
2023/10/29 12:45:22;;;;;;;4.10;2.10;;;;;;;15.52;86.64;99151.91;130906;1259;109466;-75
2023/10/29 12:48:28;;;;;;;4.40;2.30;;;;;;;15.53;85.70;99149.92;130757;1258;106490;-76
2023/10/29 12:51:36;;;;;;;3.30;2.20;;;;;;;15.53;86.35;99150.54;130798;1257;106528;-76
2023/10/29 12:54:43;;;;;;;3.70;2.20;;;;;;;15.55;86.41;99154.43;130665;1259;107728;-76
2023/10/29 12:57:54;;;;;;;3.40;2.30;;;;;;;15.60;86.18;99153.42;131049;1259;107801;-77
2023/10/29 13:01:00;;;;;;;4.20;2.70;;;;;;;15.66;86.23;99159.96;130683;1259;106974;-77
2023/10/29 13:04:06;;;;;;;3.30;2.40;;;;;;;15.75;86.48;99160.41;130865;1255;108477;-77
2023/10/29 13:07:13;;;;;;;7.60;2.30;;;;;;;15.84;86.01;99160.30;130587;1257;106607;-76
2023/10/29 13:10:20;;;;;;;5.70;2.20;;;;;;;15.87;85.91;99161.73;130634;1257;106844;-76
2023/10/29 13:13:26;;;;;;;6.20;2.40;;;;;;;15.92;85.55;99155.66;130726;1257;107610;-76
2023/10/29 13:16:32;;;;;;;4.70;2.20;;;;;;;15.96;85.41;99142.06;130621;1254;107817;-75
2023/10/29 13:19:38;;;;;;;3.10;2.10;;;;;;;15.97;84.98;99142.63;130826;1259;107797;-76
2023/10/29 13:22:43;;;;;;;3.90;2.20;;;;;;;15.94;84.91;99143.89;130730;1259;106672;-76
2023/10/29 13:25:57;;;;;;;5.00;2.00;;;;;;;15.93;84.96;99140.55;130986;1259;106793;-78
2023/10/29 13:29:02;;;;;;;4.90;2.50;;;;;;;15.95;84.86;99132.13;131169;1256;108647;-76
2023/10/29 13:32:09;;;;;;;3.90;2.10;;;;;;;15.95;84.55;99124.48;130718;1258;107166;-76
2023/10/29 13:35:15;;;;;;;5.00;2.50;;;;;;;15.99;84.74;99126.37;130766;1255;107684;-76
2023/10/29 13:38:23;;;;;;;4.90;2.20;;;;;;;16.05;84.59;99128.39;130619;1256;106710;-76
2023/10/29 13:41:28;;;;;;;6.40;2.50;;;;;;;16.04;83.83;99128.30;130543;1259;107166;-76
2023/10/29 13:44:34;;;;;;;14.80;9.90;;;;;;;15.98;83.89;99120.19;130876;1259;108854;-76
2023/10/29 13:47:39;;;;;;;5.70;3.20;;;;;;;15.94;83.95;99113.81;130555;1259;107738;-76
2023/10/29 13:50:45;;;;;;;5.80;3.70;;;;;;;15.94;84.03;99101.84;130974;1257;108151;-82
2023/10/29 13:53:50;;;;;;;8.60;3.10;;;;;;;15.96;83.97;99091.23;130837;1257;108446;-80
2023/10/29 13:56:56;;;;;;;6.40;3.50;;;;;;;15.98;83.83;99084.23;130785;1259;108673;-77
2023/10/29 14:00:03;;;;;;;3.60;2.30;;;;;;;15.97;83.56;99085.06;130666;1258;106619;-76
2023/10/29 14:03:17;;;;;;;7.70;3.70;;;;;;;15.93;83.80;99086.59;130958;1256;106424;-76
2023/10/29 14:06:26;;;;;;;6.60;4.80;;;;;;;15.87;83.75;99087.70;130876;1257;109145;-78
2023/10/29 14:09:32;;;;;;;6.20;4.80;;;;;;;15.77;83.64;99090.30;131392;1254;106584;-76
2023/10/29 14:12:40;;;;;;;7.00;4.60;;;;;;;15.65;83.54;99079.05;130898;1260;108848;-77
2023/10/29 14:15:46;;;;;;;4.00;2.60;;;;;;;15.59;83.71;99080.33;130791;1256;108410;-78